METAR Data
IDs: Format: Raw Decoded Include TAF

Data at: 2121 UTC 06 Dec 2019

KHZD 062115Z AUTO 00000KT 10SM FEW007 OVC021 11/10 A3015 RMK A01
KHZD 062055Z AUTO 00000KT 10SM FEW007 BKN020 OVC037 11/10 A3014 RMK A01
KHZD 062020Z AUTO 00000KT 10SM SCT006 BKN015 OVC035 11/10 A3012 RMK A01
KHZD 062015Z AUTO 00000KT 10SM SCT005 BKN010 OVC035 11/10 A3012 RMK A01
KHZD 061955Z AUTO 00000KT 10SM BKN004 OVC032 10/10 A3012 RMK A01
KHZD 061935Z AUTO 00000KT 10SM OVC004 11/10 A3011 RMK A01
KHZD 061915Z AUTO 13003KT 10SM OVC004 10/10 A3011 RMK A01
KHZD 061855Z AUTO 00000KT 9SM BKN003 OVC027 10/09 A3011 RMK A01
KHZD 061835Z AUTO 00000KT 3SM BR SCT003 BKN007 OVC026 09/09 A3011 RMK A01
KHZD 061815Z AUTO 00000KT 4SM BR SCT004 OVC007 09/09 A3012 RMK A01
KHZD 061755Z AUTO 00000KT 3SM BR BKN003 BKN008 OVC030 09/09 A3012 RMK A01 P0004
KHZD 061735Z AUTO 00000KT 2SM BR SCT003 BKN008 BKN021 09/08 A3011 RMK A01
KHZD 061715Z AUTO 00000KT 1 1/2SM BR OVC003 09/08 A3012 RMK A01
KHZD 061655Z AUTO 13004KT 1 1/4SM BR OVC004 08/08 A3013 RMK A01 P0004
KHZD 061635Z AUTO 00000KT 1 1/2SM BR OVC006 08/08 A3013 RMK A01
KHZD 061615Z AUTO 08003KT 1 1/4SM BR BKN008 OVC017 08/08 A3012 RMK A01
KHZD 061555Z AUTO 00000KT 6SM BR OVC017 09/08 A3012 RMK A01 P0002
KHZD 061535Z AUTO 00000KT 7SM OVC019 09/08 A3012 RMK A01
KHZD 061515Z AUTO 00000KT 10SM BKN022 BKN027 OVC031 09/07 A3011 RMK A01
KHZD 061455Z AUTO 00000KT 10SM BKN024 OVC031 09/07 A3011 RMK A01
KHZD 061435Z AUTO 15003KT 8SM BKN025 BKN030 OVC035 09/07 A3010 RMK A01
KHZD 061415Z AUTO 00000KT 10SM SCT027 BKN060 OVC070 09/07 A3010 RMK A01
KHZD 061355Z AUTO 18003KT 9SM FEW055 BKN070 OVC080 08/07 A3010 RMK A01 P0004
KHZD 061335Z AUTO 00000KT 7SM FEW017 BKN065 OVC075 09/07 A3009 RMK A01
KHZD 061315Z AUTO 00000KT 5SM HZ OVC070 09/06 A3008 RMK A01
KHZD 061255Z AUTO 20005KT 9SM FEW050 FEW060 OVC075 10/04 A3007 RMK A01
KHZD 061235Z AUTO 00000KT 10SM SCT047 SCT060 OVC075 10/04 A3006 RMK A01
KHZD 061215Z AUTO 00000KT 10SM BKN045 OVC070 10/04 A3006 RMK A01
KHZD 061155Z AUTO 18003KT 10SM OVC070 11/03 A3006 RMK A01
KHZD 061135Z AUTO 17004KT 10SM BKN070 BKN080 OVC095 11/03 A3005 RMK A01
KHZD 061115Z AUTO 15004KT 10SM SCT070 SCT080 OVC095 11/03 A3004 RMK A01
KHZD 061055Z AUTO 15005KT 10SM OVC090 11/03 A3004 RMK A01
KHZD 061035Z AUTO 16005KT 10SM FEW065 FEW075 OVC090 11/03 A3004 RMK A01
KHZD 061015Z AUTO 14004KT 10SM FEW049 SCT065 BKN075 11/02 A3004 RMK A01
KHZD 060955Z AUTO 00000KT 10SM SCT075 OVC085 10/03 A3005 RMK A01
KHZD 060935Z AUTO 00000KT 10SM SCT075 OVC085 11/03 A3005 RMK A01
KHZD 060915Z AUTO 15004KT 10SM OVC085 11/03 A3006 RMK A01
KHZD 060855Z AUTO 16004KT 10SM FEW018 OVC090 10/03 A3006 RMK A01
KHZD 060835Z AUTO 00000KT 10SM FEW018 OVC090 10/02 A3007 RMK A01
KHZD 060815Z AUTO 00000KT 10SM FEW042 BKN090 OVC110 11/02 A3008 RMK A01
KHZD 060755Z AUTO 16003KT 10SM FEW047 SCT070 BKN090 11/02 A3007 RMK A01
KHZD 060735Z AUTO 17003KT 10SM BKN090 BKN110 11/02 A3007 RMK A01
KHZD 060715Z AUTO 17005KT 10SM FEW075 OVC100 11/02 A3007 RMK A01
KHZD 060655Z AUTO 18003KT 10SM OVC110 10/02 A3007 RMK A01
KHZD 060635Z AUTO 19003KT 10SM OVC120 10/02 A3008 RMK A01
KHZD 060615Z AUTO 00000KT 10SM OVC120 10/02 A3008 RMK A01
KHZD 060555Z AUTO 00000KT 10SM OVC110 11/02 A3008 RMK A01
KHZD 060535Z AUTO 18003KT 10SM OVC110 11/02 A3008 RMK A01
KHZD 060515Z AUTO 00000KT 10SM OVC110 11/02 A3008 RMK A01
KHZD 060455Z AUTO 00000KT 10SM OVC120 11/02 A3007 RMK A01
KHZD 060425Z AUTO 18005KT 10SM OVC120 12/02 A3007 RMK A01
KHZD 060415Z AUTO 17005KT 10SM OVC120 12/02 A3006 RMK A01
KHZD 060355Z AUTO 15005KT 10SM BKN120 12/02 A3006 RMK A01
KHZD 060335Z AUTO 16005KT 10SM SCT110 12/01 A3005 RMK A01
KHZD 060315Z AUTO 16007KT 10SM OVC120 12/01 A3005 RMK A01
KHZD 060255Z AUTO 16006KT 10SM FEW046 FEW070 OVC120 12/02 A3006 RMK A01
KHZD 060235Z AUTO 16007KT 10SM FEW033 SCT047 BKN070 13/02 A3006 RMK A01
KHZD 060215Z AUTO 17006KT 10SM FEW049 SCT075 OVC110 13/01 A3006 RMK A01
KHZD 060155Z AUTO 18009KT 10SM FEW041 FEW070 OVC110 13/01 A3006 RMK A01
KHZD 060135Z AUTO 18007KT 10SM FEW036 SCT065 OVC075 13/01 A3006 RMK A01
KHZD 060115Z AUTO 17006KT 10SM FEW070 BKN080 OVC110 13/01 A3007 RMK A01
KHZD 060055Z AUTO 20005KT 10SM FEW085 OVC120 13/02 A3008 RMK A01
KHZD 060035Z AUTO 18007KT 10SM SCT080 OVC120 13/02 A3007 RMK A01
KHZD 060015Z AUTO 17005KT 10SM FEW070 BKN080 OVC110 13/02 A3008 RMK A01
KHZD 052355Z AUTO 15004KT 10SM FEW065 BKN095 OVC110 13/02 A3007 RMK A01
KHZD 052325Z AUTO 17004KT 10SM BKN110 13/02 A3006 RMK A01
KHZD 052315Z AUTO 17005KT 10SM BKN110 13/02 A3006 RMK A01
KHZD 052255Z AUTO 17004KT 10SM FEW120 13/02 A3006 RMK A01
KHZD 052230Z AUTO 16005KT 10SM CLR 14/02 A3006 RMK A01
KHZD 052200Z AUTO 17006KT 10SM BKN120 15/02 A3005 RMK A01
KHZD 052155Z AUTO 16006KT 10SM BKN110 15/02 A3005 RMK A01
KHZD 052135Z AUTO 14004KT 10SM OVC110 16/01 A3006 RMK A01
KHZD 052115Z AUTO 15005KT 10SM OVC120 16/01 A3006 RMK A01
KHZD 052055Z AUTO 16004KT 10SM BKN120 16/01 A3006 RMK A01
KHZD 052035Z AUTO 16006G11KT BKN120 16/01 A3005 RMK A01
KHZD 052015Z AUTO 17007KT 10SM CLR 17/01 A3005 RMK A01
KHZD 051955Z AUTO 18007KT 10SM CLR 17/02 A3005 RMK A01
KHZD 051935Z AUTO 18009KT 10SM FEW120 17/01 A3005 RMK A01
KHZD 051915Z AUTO 16009KT 140V200 10SM BKN120 18/01 A3006 RMK A01
KHZD 051855Z AUTO 17008KT 10SM SCT120 17/01 A3006 RMK A01
KHZD 051835Z AUTO 15006G12KT 10SM CLR 17/01 A3007 RMK A01
KHZD 051815Z AUTO 16007KT 10SM CLR 17/01 A3008 RMK A01
KHZD 051755Z AUTO 15008KT 10SM CLR 16/01 A3009 RMK A01
KHZD 051735Z AUTO 16008KT 10SM CLR 16/02 A3010 RMK A01
KHZD 051715Z AUTO 17008KT 10SM CLR 15/02 A3011 RMK A01
KHZD 051655Z AUTO 16008KT 10SM CLR 14/02 A3012 RMK A01
KHZD 051615Z AUTO 15007KT 10SM CLR 12/02 A3013 RMK A01
KHZD 051555Z AUTO 15006KT 10SM CLR 11/03 A3013 RMK A01
KHZD 051535Z AUTO 17004KT 10SM CLR 09/03 A3013 RMK A01
KHZD 051515Z AUTO 00000KT 10SM CLR 07/03 A3013 RMK A01
KHZD 051455Z AUTO 12004KT 10SM CLR 06/03 A3012 RMK A01
KHZD 051435Z AUTO 11003KT 10SM CLR 04/02 A3011 RMK A01
KHZD 051415Z AUTO 00000KT 10SM CLR 04/02 A3011 RMK A01
KHZD 051355Z AUTO 00000KT 10SM CLR 02/01 A3011 RMK A01
KHZD 051335Z AUTO 00000KT 10SM CLR 02/01 A3011 RMK A01
KHZD 051315Z AUTO 00000KT 10SM CLR 02/01 A3010 RMK A01
KHZD 051255Z AUTO 00000KT 10SM CLR 01/00 A3010 RMK A01
KHZD 051235Z AUTO 00000KT 10SM CLR 02/00 A3009 RMK A01
KHZD 051215Z AUTO 00000KT 10SM CLR 02/00 A3009 RMK A01
KHZD 051155Z AUTO 00000KT 10SM CLR 02/00 A3008 RMK A01
KHZD 051130Z AUTO 00000KT 10SM CLR 02/00 A3007 RMK A01
KHZD 051115Z AUTO 00000KT 10SM CLR 02/00 A3007 RMK A01
KHZD 051055Z AUTO 00000KT 02/00 A3006 RMK A01
KHZD 051035Z AUTO 00000KT 10SM CLR 01/00 A3005 RMK A01
KHZD 051015Z AUTO 00000KT 10SM CLR 01/00 A3005 RMK A01
KHZD 050955Z AUTO 00000KT 10SM CLR 01/M00 A3005 RMK A01
KHZD 050935Z AUTO 00000KT 10SM CLR 01/M00 A3005 RMK A01